sensor_id;sensor_type;location;lat;lon;timestamp;P1;durP1;ratioP1;P2;durP2;ratioP2
25922;SDS011;13725;51.170;4.442;2024-01-30T00:01:58;15.25;;;6.95;;
25922;SDS011;13725;51.170;4.442;2024-01-30T00:04:23;11.93;;;6.15;;
25922;SDS011;13725;51.170;4.442;2024-01-30T00:06:50;11.65;;;5.88;;
25922;SDS011;13725;51.170;4.442;2024-01-30T00:09:16;17.08;;;6.90;;
25922;SDS011;13725;51.170;4.442;2024-01-30T00:11:42;12.98;;;6.57;;
25922;SDS011;13725;51.170;4.442;2024-01-30T00:14:07;10.25;;;5.85;;
25922;SDS011;13725;51.170;4.442;2024-01-30T00:16:33;13.43;;;6.93;;
25922;SDS011;13725;51.170;4.442;2024-01-30T00:18:59;14.63;;;6.65;;
25922;SDS011;13725;51.170;4.442;2024-01-30T00:21:27;11.32;;;6.22;;
25922;SDS011;13725;51.170;4.442;2024-01-30T00:23:53;14.40;;;6.40;;
25922;SDS011;13725;51.170;4.442;2024-01-30T00:26:18;11.00;;;6.35;;
25922;SDS011;13725;51.170;4.442;2024-01-30T00:28:44;10.15;;;6.03;;
25922;SDS011;13725;51.170;4.442;2024-01-30T00:31:10;13.93;;;6.47;;
25922;SDS011;13725;51.170;4.442;2024-01-30T00:33:40;10.80;;;6.18;;
25922;SDS011;13725;51.170;4.442;2024-01-30T00:36:07;12.75;;;6.13;;
25922;SDS011;13725;51.170;4.442;2024-01-30T00:38:33;9.90;;;5.90;;
25922;SDS011;13725;51.170;4.442;2024-01-30T00:40:59;11.65;;;6.10;;
25922;SDS011;13725;51.170;4.442;2024-01-30T00:43:25;14.98;;;6.30;;
25922;SDS011;13725;51.170;4.442;2024-01-30T00:45:51;13.57;;;5.93;;
25922;SDS011;13725;51.170;4.442;2024-01-30T00:48:20;11.45;;;6.28;;
25922;SDS011;13725;51.170;4.442;2024-01-30T00:50:46;11.18;;;6.60;;
25922;SDS011;13725;51.170;4.442;2024-01-30T00:53:11;14.02;;;6.38;;
25922;SDS011;13725;51.170;4.442;2024-01-30T00:55:38;11.35;;;6.25;;
25922;SDS011;13725;51.170;4.442;2024-01-30T00:58:03;12.90;;;6.28;;
25922;SDS011;13725;51.170;4.442;2024-01-30T01:00:29;12.73;;;6.60;;
25922;SDS011;13725;51.170;4.442;2024-01-30T01:02:57;10.82;;;6.55;;
25922;SDS011;13725;51.170;4.442;2024-01-30T01:05:26;11.68;;;6.30;;
25922;SDS011;13725;51.170;4.442;2024-01-30T01:07:52;14.43;;;6.15;;
25922;SDS011;13725;51.170;4.442;2024-01-30T01:10:18;14.82;;;6.30;;
25922;SDS011;13725;51.170;4.442;2024-01-30T01:12:44;11.63;;;6.18;;
25922;SDS011;13725;51.170;4.442;2024-01-30T01:15:10;12.73;;;6.78;;
25922;SDS011;13725;51.170;4.442;2024-01-30T01:17:36;13.05;;;6.00;;
25922;SDS011;13725;51.170;4.442;2024-01-30T01:20:03;11.48;;;6.20;;
25922;SDS011;13725;51.170;4.442;2024-01-30T01:22:30;11.10;;;6.10;;
25922;SDS011;13725;51.170;4.442;2024-01-30T01:24:56;14.35;;;6.40;;
25922;SDS011;13725;51.170;4.442;2024-01-30T01:27:22;10.68;;;5.90;;
25922;SDS011;13725;51.170;4.442;2024-01-30T01:29:48;11.95;;;6.32;;
25922;SDS011;13725;51.170;4.442;2024-01-30T01:32:13;12.70;;;6.35;;
25922;SDS011;13725;51.170;4.442;2024-01-30T01:34:39;15.77;;;6.60;;
25922;SDS011;13725;51.170;4.442;2024-01-30T01:37:05;10.23;;;5.57;;
25922;SDS011;13725;51.170;4.442;2024-01-30T01:39:30;10.77;;;6.28;;
25922;SDS011;13725;51.170;4.442;2024-01-30T01:41:56;12.50;;;6.13;;
25922;SDS011;13725;51.170;4.442;2024-01-30T01:44:22;20.85;;;6.75;;
25922;SDS011;13725;51.170;4.442;2024-01-30T01:46:47;12.15;;;6.00;;
25922;SDS011;13725;51.170;4.442;2024-01-30T01:49:14;13.20;;;6.32;;
25922;SDS011;13725;51.170;4.442;2024-01-30T01:51:39;11.38;;;6.50;;
25922;SDS011;13725;51.170;4.442;2024-01-30T01:54:07;12.23;;;6.25;;
25922;SDS011;13725;51.170;4.442;2024-01-30T01:56:34;13.93;;;6.95;;
25922;SDS011;13725;51.170;4.442;2024-01-30T01:59:04;13.98;;;6.82;;
25922;SDS011;13725;51.170;4.442;2024-01-30T02:01:38;13.27;;;7.00;;
25922;SDS011;13725;51.170;4.442;2024-01-30T02:04:06;13.30;;;6.70;;
25922;SDS011;13725;51.170;4.442;2024-01-30T02:06:33;11.50;;;6.55;;
25922;SDS011;13725;51.170;4.442;2024-01-30T02:08:59;14.00;;;6.85;;
25922;SDS011;13725;51.170;4.442;2024-01-30T02:11:25;12.25;;;6.97;;
25922;SDS011;13725;51.170;4.442;2024-01-30T02:13:52;13.95;;;6.68;;
25922;SDS011;13725;51.170;4.442;2024-01-30T02:16:17;17.10;;;6.43;;
25922;SDS011;13725;51.170;4.442;2024-01-30T02:18:43;11.10;;;6.45;;
25922;SDS011;13725;51.170;4.442;2024-01-30T02:21:12;12.32;;;6.93;;
25922;SDS011;13725;51.170;4.442;2024-01-30T02:23:43;13.85;;;6.85;;
25922;SDS011;13725;51.170;4.442;2024-01-30T02:26:11;14.15;;;7.18;;
25922;SDS011;13725;51.170;4.442;2024-01-30T02:28:37;12.52;;;6.85;;
25922;SDS011;13725;51.170;4.442;2024-01-30T02:31:03;17.17;;;7.00;;
25922;SDS011;13725;51.170;4.442;2024-01-30T02:33:29;14.63;;;6.80;;
25922;SDS011;13725;51.170;4.442;2024-01-30T02:35:55;15.98;;;7.03;;
25922;SDS011;13725;51.170;4.442;2024-01-30T02:38:21;13.68;;;6.53;;
25922;SDS011;13725;51.170;4.442;2024-01-30T02:40:48;14.00;;;7.00;;
25922;SDS011;13725;51.170;4.442;2024-01-30T02:43:15;16.85;;;6.60;;
25922;SDS011;13725;51.170;4.442;2024-01-30T02:45:41;13.30;;;6.63;;
25922;SDS011;13725;51.170;4.442;2024-01-30T02:48:07;15.10;;;7.43;;
25922;SDS011;13725;51.170;4.442;2024-01-30T02:50:33;12.45;;;6.90;;
25922;SDS011;13725;51.170;4.442;2024-01-30T02:52:59;14.82;;;7.07;;
25922;SDS011;13725;51.170;4.442;2024-01-30T02:55:25;14.23;;;6.25;;
25922;SDS011;13725;51.170;4.442;2024-01-30T02:57:50;13.68;;;6.88;;
25922;SDS011;13725;51.170;4.442;2024-01-30T03:00:16;15.02;;;6.65;;
25922;SDS011;13725;51.170;4.442;2024-01-30T03:02:43;19.98;;;7.43;;
25922;SDS011;13725;51.170;4.442;2024-01-30T03:05:08;13.43;;;6.57;;
25922;SDS011;13725;51.170;4.442;2024-01-30T03:07:34;16.55;;;7.13;;
25922;SDS011;13725;51.170;4.442;2024-01-30T03:10:00;19.30;;;6.45;;
25922;SDS011;13725;51.170;4.442;2024-01-30T03:12:25;13.45;;;6.28;;
25922;SDS011;13725;51.170;4.442;2024-01-30T03:14:51;11.10;;;6.40;;
25922;SDS011;13725;51.170;4.442;2024-01-30T03:17:17;15.82;;;6.15;;
25922;SDS011;13725;51.170;4.442;2024-01-30T03:19:44;13.05;;;6.88;;
25922;SDS011;13725;51.170;4.442;2024-01-30T03:22:09;11.27;;;6.50;;
25922;SDS011;13725;51.170;4.442;2024-01-30T03:24:35;12.52;;;6.22;;
25922;SDS011;13725;51.170;4.442;2024-01-30T03:27:01;15.73;;;6.35;;
25922;SDS011;13725;51.170;4.442;2024-01-30T03:29:26;14.10;;;6.45;;
25922;SDS011;13725;51.170;4.442;2024-01-30T03:31:52;15.30;;;6.38;;
25922;SDS011;13725;51.170;4.442;2024-01-30T03:34:18;13.07;;;6.25;;
25922;SDS011;13725;51.170;4.442;2024-01-30T03:36:44;14.88;;;6.18;;
25922;SDS011;13725;51.170;4.442;2024-01-30T03:39:09;16.35;;;7.20;;
25922;SDS011;13725;51.170;4.442;2024-01-30T03:41:35;11.63;;;6.50;;
25922;SDS011;13725;51.170;4.442;2024-01-30T03:44:01;16.00;;;6.63;;
25922;SDS011;13725;51.170;4.442;2024-01-30T03:46:27;13.32;;;6.13;;
25922;SDS011;13725;51.170;4.442;2024-01-30T03:48:53;18.00;;;6.82;;
25922;SDS011;13725;51.170;4.442;2024-01-30T03:51:19;15.68;;;6.68;;
25922;SDS011;13725;51.170;4.442;2024-01-30T03:53:44;16.95;;;6.78;;
25922;SDS011;13725;51.170;4.442;2024-01-30T03:56:11;12.52;;;6.60;;
25922;SDS011;13725;51.170;4.442;2024-01-30T03:58:38;12.52;;;6.32;;
25922;SDS011;13725;51.170;4.442;2024-01-30T04:01:04;11.25;;;6.10;;
25922;SDS011;13725;51.170;4.442;2024-01-30T04:03:30;13.02;;;6.53;;
25922;SDS011;13725;51.170;4.442;2024-01-30T04:05:56;12.68;;;6.25;;
25922;SDS011;13725;51.170;4.442;2024-01-30T04:08:21;16.13;;;6.97;;
25922;SDS011;13725;51.170;4.442;2024-01-30T04:10:47;12.10;;;6.53;;
25922;SDS011;13725;51.170;4.442;2024-01-30T04:13:14;13.48;;;6.07;;
25922;SDS011;13725;51.170;4.442;2024-01-30T04:15:40;13.10;;;6.13;;
25922;SDS011;13725;51.170;4.442;2024-01-30T04:18:05;14.13;;;6.35;;
25922;SDS011;13725;51.170;4.442;2024-01-30T04:20:31;14.82;;;6.30;;
25922;SDS011;13725;51.170;4.442;2024-01-30T04:22:57;13.23;;;6.40;;
25922;SDS011;13725;51.170;4.442;2024-01-30T04:25:24;15.45;;;6.53;;
25922;SDS011;13725;51.170;4.442;2024-01-30T04:27:49;9.98;;;5.85;;
25922;SDS011;13725;51.170;4.442;2024-01-30T04:30:15;12.45;;;5.70;;
25922;SDS011;13725;51.170;4.442;2024-01-30T04:32:41;16.33;;;6.15;;
25922;SDS011;13725;51.170;4.442;2024-01-30T04:35:07;11.82;;;6.13;;
25922;SDS011;13725;51.170;4.442;2024-01-30T04:37:34;14.15;;;5.90;;
25922;SDS011;13725;51.170;4.442;2024-01-30T04:39:59;20.00;;;7.38;;
25922;SDS011;13725;51.170;4.442;2024-01-30T04:42:25;13.63;;;6.10;;
25922;SDS011;13725;51.170;4.442;2024-01-30T04:44:51;13.50;;;6.15;;
25922;SDS011;13725;51.170;4.442;2024-01-30T04:47:17;14.00;;;5.90;;
25922;SDS011;13725;51.170;4.442;2024-01-30T04:49:42;12.60;;;6.18;;
25922;SDS011;13725;51.170;4.442;2024-01-30T04:52:08;15.07;;;6.00;;
25922;SDS011;13725;51.170;4.442;2024-01-30T04:54:34;11.05;;;6.03;;
25922;SDS011;13725;51.170;4.442;2024-01-30T04:57:01;13.32;;;6.22;;
25922;SDS011;13725;51.170;4.442;2024-01-30T04:59:27;10.65;;;5.75;;
25922;SDS011;13725;51.170;4.442;2024-01-30T05:01:53;19.50;;;7.38;;
25922;SDS011;13725;51.170;4.442;2024-01-30T05:04:18;14.20;;;5.93;;
25922;SDS011;13725;51.170;4.442;2024-01-30T05:06:44;13.98;;;6.03;;
25922;SDS011;13725;51.170;4.442;2024-01-30T05:09:10;12.05;;;6.88;;
25922;SDS011;13725;51.170;4.442;2024-01-30T05:11:40;12.05;;;5.85;;
25922;SDS011;13725;51.170;4.442;2024-01-30T05:14:06;14.75;;;6.05;;
25922;SDS011;13725;51.170;4.442;2024-01-30T05:16:33;15.45;;;7.13;;
25922;SDS011;13725;51.170;4.442;2024-01-30T05:18:59;8.40;;;5.68;;
25922;SDS011;13725;51.170;4.442;2024-01-30T05:21:25;10.82;;;6.18;;
25922;SDS011;13725;51.170;4.442;2024-01-30T05:23:51;14.65;;;6.43;;
25922;SDS011;13725;51.170;4.442;2024-01-30T05:26:17;14.48;;;6.20;;
25922;SDS011;13725;51.170;4.442;2024-01-30T05:28:43;13.15;;;6.03;;
25922;SDS011;13725;51.170;4.442;2024-01-30T05:31:11;14.80;;;6.45;;
25922;SDS011;13725;51.170;4.442;2024-01-30T05:33:37;15.45;;;6.65;;
25922;SDS011;13725;51.170;4.442;2024-01-30T05:36:03;13.80;;;5.80;;
25922;SDS011;13725;51.170;4.442;2024-01-30T05:38:29;14.30;;;6.45;;
25922;SDS011;13725;51.170;4.442;2024-01-30T05:40:55;12.38;;;6.60;;
25922;SDS011;13725;51.170;4.442;2024-01-30T05:43:23;14.57;;;6.07;;
25922;SDS011;13725;51.170;4.442;2024-01-30T05:45:49;13.48;;;6.15;;
25922;SDS011;13725;51.170;4.442;2024-01-30T05:48:15;14.57;;;6.43;;
25922;SDS011;13725;51.170;4.442;2024-01-30T05:50:41;13.23;;;6.60;;
25922;SDS011;13725;51.170;4.442;2024-01-30T05:53:07;14.40;;;6.68;;
25922;SDS011;13725;51.170;4.442;2024-01-30T05:55:33;14.65;;;6.85;;
25922;SDS011;13725;51.170;4.442;2024-01-30T05:57:58;17.73;;;7.80;;
25922;SDS011;13725;51.170;4.442;2024-01-30T06:00:24;14.25;;;6.38;;
25922;SDS011;13725;51.170;4.442;2024-01-30T06:02:50;14.90;;;7.07;;
25922;SDS011;13725;51.170;4.442;2024-01-30T06:05:15;11.43;;;6.90;;
25922;SDS011;13725;51.170;4.442;2024-01-30T06:07:41;16.58;;;6.90;;
25922;SDS011;13725;51.170;4.442;2024-01-30T06:10:07;14.43;;;6.57;;
25922;SDS011;13725;51.170;4.442;2024-01-30T06:12:35;16.13;;;6.88;;
25922;SDS011;13725;51.170;4.442;2024-01-30T06:15:00;14.70;;;6.45;;
25922;SDS011;13725;51.170;4.442;2024-01-30T06:17:27;15.55;;;7.10;;
25922;SDS011;13725;51.170;4.442;2024-01-30T06:19:53;17.95;;;6.60;;
25922;SDS011;13725;51.170;4.442;2024-01-30T06:22:19;18.00;;;7.07;;
25922;SDS011;13725;51.170;4.442;2024-01-30T06:24:45;14.10;;;6.70;;
25922;SDS011;13725;51.170;4.442;2024-01-30T06:27:13;15.15;;;7.13;;
25922;SDS011;13725;51.170;4.442;2024-01-30T06:29:39;14.95;;;6.80;;
25922;SDS011;13725;51.170;4.442;2024-01-30T06:32:05;14.70;;;6.75;;
25922;SDS011;13725;51.170;4.442;2024-01-30T06:34:31;18.23;;;7.57;;
25922;SDS011;13725;51.170;4.442;2024-01-30T06:36:57;13.65;;;6.93;;
25922;SDS011;13725;51.170;4.442;2024-01-30T06:39:23;17.33;;;6.50;;
25922;SDS011;13725;51.170;4.442;2024-01-30T06:41:49;15.90;;;6.28;;
25922;SDS011;13725;51.170;4.442;2024-01-30T06:44:14;19.27;;;7.53;;
25922;SDS011;13725;51.170;4.442;2024-01-30T06:46:48;18.52;;;6.95;;
25922;SDS011;13725;51.170;4.442;2024-01-30T06:49:16;18.55;;;7.15;;
25922;SDS011;13725;51.170;4.442;2024-01-30T06:51:42;16.70;;;7.00;;
25922;SDS011;13725;51.170;4.442;2024-01-30T06:54:08;17.83;;;7.28;;
25922;SDS011;13725;51.170;4.442;2024-01-30T06:56:34;14.70;;;6.97;;
25922;SDS011;13725;51.170;4.442;2024-01-30T06:59:00;14.93;;;7.40;;
25922;SDS011;13725;51.170;4.442;2024-01-30T07:01:29;18.85;;;6.72;;
25922;SDS011;13725;51.170;4.442;2024-01-30T07:03:55;19.40;;;7.15;;
25922;SDS011;13725;51.170;4.442;2024-01-30T07:06:21;14.65;;;6.78;;
25922;SDS011;13725;51.170;4.442;2024-01-30T07:08:48;17.95;;;7.15;;
25922;SDS011;13725;51.170;4.442;2024-01-30T07:11:21;15.95;;;7.10;;
25922;SDS011;13725;51.170;4.442;2024-01-30T07:13:47;16.38;;;6.65;;
25922;SDS011;13725;51.170;4.442;2024-01-30T07:16:14;15.10;;;7.43;;
25922;SDS011;13725;51.170;4.442;2024-01-30T07:18:40;20.08;;;7.22;;
25922;SDS011;13725;51.170;4.442;2024-01-30T07:21:06;17.60;;;7.15;;
25922;SDS011;13725;51.170;4.442;2024-01-30T07:23:32;14.13;;;6.63;;
25922;SDS011;13725;51.170;4.442;2024-01-30T07:25:59;14.88;;;6.90;;
25922;SDS011;13725;51.170;4.442;2024-01-30T07:28:25;17.10;;;7.85;;
25922;SDS011;13725;51.170;4.442;2024-01-30T07:30:50;17.90;;;7.97;;
25922;SDS011;13725;51.170;4.442;2024-01-30T07:33:16;18.02;;;7.40;;
25922;SDS011;13725;51.170;4.442;2024-01-30T07:35:42;25.95;;;7.68;;
25922;SDS011;13725;51.170;4.442;2024-01-30T07:38:08;22.33;;;8.52;;
25922;SDS011;13725;51.170;4.442;2024-01-30T07:40:34;20.92;;;7.22;;
25922;SDS011;13725;51.170;4.442;2024-01-30T07:42:59;15.68;;;7.75;;
25922;SDS011;13725;51.170;4.442;2024-01-30T07:45:26;24.70;;;8.43;;
25922;SDS011;13725;51.170;4.442;2024-01-30T07:47:52;20.65;;;7.65;;
25922;SDS011;13725;51.170;4.442;2024-01-30T07:50:18;22.65;;;8.07;;
25922;SDS011;13725;51.170;4.442;2024-01-30T07:52:44;21.55;;;7.93;;
25922;SDS011;13725;51.170;4.442;2024-01-30T07:55:10;17.55;;;7.35;;
25922;SDS011;13725;51.170;4.442;2024-01-30T07:57:38;15.15;;;6.43;;
25922;SDS011;13725;51.170;4.442;2024-01-30T08:00:05;21.35;;;6.85;;
25922;SDS011;13725;51.170;4.442;2024-01-30T08:02:33;17.75;;;7.40;;
25922;SDS011;13725;51.170;4.442;2024-01-30T08:04:59;20.83;;;7.55;;
25922;SDS011;13725;51.170;4.442;2024-01-30T08:07:25;16.35;;;6.88;;
25922;SDS011;13725;51.170;4.442;2024-01-30T08:09:51;24.10;;;7.97;;
25922;SDS011;13725;51.170;4.442;2024-01-30T08:12:16;20.33;;;7.05;;
25922;SDS011;13725;51.170;4.442;2024-01-30T08:14:42;21.10;;;7.15;;
25922;SDS011;13725;51.170;4.442;2024-01-30T08:17:08;16.05;;;6.18;;
25922;SDS011;13725;51.170;4.442;2024-01-30T08:19:33;16.92;;;6.97;;
25922;SDS011;13725;51.170;4.442;2024-01-30T08:21:59;29.65;;;11.68;;
25922;SDS011;13725;51.170;4.442;2024-01-30T08:24:25;22.98;;;10.05;;
25922;SDS011;13725;51.170;4.442;2024-01-30T08:26:51;22.10;;;7.53;;
25922;SDS011;13725;51.170;4.442;2024-01-30T08:29:16;16.48;;;6.93;;
25922;SDS011;13725;51.170;4.442;2024-01-30T08:31:42;15.45;;;6.90;;
25922;SDS011;13725;51.170;4.442;2024-01-30T08:34:09;18.13;;;8.02;;
25922;SDS011;13725;51.170;4.442;2024-01-30T08:36:35;24.38;;;10.38;;
25922;SDS011;13725;51.170;4.442;2024-01-30T08:39:01;18.20;;;7.65;;
25922;SDS011;13725;51.170;4.442;2024-01-30T08:41:28;17.60;;;7.32;;
25922;SDS011;13725;51.170;4.442;2024-01-30T08:43:53;13.60;;;6.78;;
25922;SDS011;13725;51.170;4.442;2024-01-30T08:46:19;16.08;;;7.00;;
25922;SDS011;13725;51.170;4.442;2024-01-30T08:48:46;12.85;;;6.90;;
25922;SDS011;13725;51.170;4.442;2024-01-30T08:51:12;17.90;;;7.63;;
25922;SDS011;13725;51.170;4.442;2024-01-30T08:53:40;21.42;;;7.82;;
25922;SDS011;13725;51.170;4.442;2024-01-30T08:56:05;15.57;;;6.75;;
25922;SDS011;13725;51.170;4.442;2024-01-30T08:58:32;18.58;;;6.55;;
25922;SDS011;13725;51.170;4.442;2024-01-30T09:00:58;16.35;;;7.00;;
25922;SDS011;13725;51.170;4.442;2024-01-30T09:03:24;15.70;;;7.03;;
25922;SDS011;13725;51.170;4.442;2024-01-30T09:05:49;15.90;;;8.05;;
25922;SDS011;13725;51.170;4.442;2024-01-30T09:08:15;18.42;;;7.03;;
25922;SDS011;13725;51.170;4.442;2024-01-30T09:10:42;19.27;;;7.20;;
25922;SDS011;13725;51.170;4.442;2024-01-30T09:13:09;15.23;;;7.25;;
25922;SDS011;13725;51.170;4.442;2024-01-30T09:15:35;18.38;;;7.70;;
25922;SDS011;13725;51.170;4.442;2024-01-30T09:18:01;16.73;;;7.00;;
25922;SDS011;13725;51.170;4.442;2024-01-30T09:20:27;12.93;;;6.40;;
25922;SDS011;13725;51.170;4.442;2024-01-30T09:22:52;16.08;;;7.43;;
25922;SDS011;13725;51.170;4.442;2024-01-30T09:25:18;15.50;;;7.80;;
25922;SDS011;13725;51.170;4.442;2024-01-30T09:27:44;14.73;;;7.93;;
25922;SDS011;13725;51.170;4.442;2024-01-30T09:30:10;12.02;;;6.75;;
25922;SDS011;13725;51.170;4.442;2024-01-30T09:32:36;18.83;;;8.00;;
25922;SDS011;13725;51.170;4.442;2024-01-30T09:35:01;16.13;;;7.22;;
25922;SDS011;13725;51.170;4.442;2024-01-30T09:37:27;18.10;;;8.10;;
25922;SDS011;13725;51.170;4.442;2024-01-30T09:39:53;21.02;;;8.25;;
25922;SDS011;13725;51.170;4.442;2024-01-30T09:42:26;20.20;;;8.20;;
25922;SDS011;13725;51.170;4.442;2024-01-30T09:44:53;17.38;;;7.22;;
25922;SDS011;13725;51.170;4.442;2024-01-30T09:47:19;16.13;;;8.02;;
25922;SDS011;13725;51.170;4.442;2024-01-30T09:49:45;17.27;;;8.55;;
25922;SDS011;13725;51.170;4.442;2024-01-30T09:52:11;19.52;;;9.38;;
25922;SDS011;13725;51.170;4.442;2024-01-30T09:54:37;19.15;;;9.52;;
25922;SDS011;13725;51.170;4.442;2024-01-30T09:57:04;18.38;;;9.27;;
25922;SDS011;13725;51.170;4.442;2024-01-30T09:59:30;16.40;;;8.30;;
25922;SDS011;13725;51.170;4.442;2024-01-30T10:01:57;18.75;;;9.02;;
25922;SDS011;13725;51.170;4.442;2024-01-30T10:04:23;16.35;;;7.95;;
25922;SDS011;13725;51.170;4.442;2024-01-30T10:06:49;16.85;;;8.57;;
25922;SDS011;13725;51.170;4.442;2024-01-30T10:09:15;20.67;;;9.10;;
25922;SDS011;13725;51.170;4.442;2024-01-30T10:11:41;23.88;;;10.18;;
25922;SDS011;13725;51.170;4.442;2024-01-30T10:14:07;26.60;;;10.20;;
25922;SDS011;13725;51.170;4.442;2024-01-30T10:16:34;23.25;;;11.32;;
25922;SDS011;13725;51.170;4.442;2024-01-30T10:19:00;20.33;;;9.88;;
25922;SDS011;13725;51.170;4.442;2024-01-30T10:21:26;33.38;;;11.77;;
25922;SDS011;13725;51.170;4.442;2024-01-30T10:23:52;20.65;;;9.88;;
25922;SDS011;13725;51.170;4.442;2024-01-30T10:26:18;24.08;;;10.25;;
25922;SDS011;13725;51.170;4.442;2024-01-30T10:28:44;29.65;;;8.55;;
25922;SDS011;13725;51.170;4.442;2024-01-30T10:31:10;15.70;;;7.57;;
25922;SDS011;13725;51.170;4.442;2024-01-30T10:33:36;13.43;;;7.15;;
25922;SDS011;13725;51.170;4.442;2024-01-30T10:36:03;17.38;;;7.40;;
25922;SDS011;13725;51.170;4.442;2024-01-30T10:38:30;17.58;;;7.20;;
25922;SDS011;13725;51.170;4.442;2024-01-30T10:40:57;14.10;;;6.80;;
25922;SDS011;13725;51.170;4.442;2024-01-30T10:43:32;12.27;;;5.50;;
25922;SDS011;13725;51.170;4.442;2024-01-30T10:46:02;11.27;;;3.83;;
25922;SDS011;13725;51.170;4.442;2024-01-30T10:48:36;6.93;;;2.30;;
25922;SDS011;13725;51.170;4.442;2024-01-30T10:51:15;7.30;;;2.28;;
25922;SDS011;13725;51.170;4.442;2024-01-30T10:53:42;5.80;;;1.58;;
25922;SDS011;13725;51.170;4.442;2024-01-30T10:56:11;3.30;;;1.20;;
25922;SDS011;13725;51.170;4.442;2024-01-30T10:58:38;4.38;;;2.08;;
25922;SDS011;13725;51.170;4.442;2024-01-30T11:01:04;3.35;;;1.48;;
25922;SDS011;13725;51.170;4.442;2024-01-30T11:03:31;3.25;;;1.10;;
25922;SDS011;13725;51.170;4.442;2024-01-30T11:06:00;6.53;;;1.00;;
25922;SDS011;13725;51.170;4.442;2024-01-30T11:08:26;4.80;;;1.17;;
25922;SDS011;13725;51.170;4.442;2024-01-30T11:10:58;5.00;;;1.38;;
25922;SDS011;13725;51.170;4.442;2024-01-30T11:13:30;3.78;;;1.05;;
25922;SDS011;13725;51.170;4.442;2024-01-30T11:16:02;2.45;;;0.85;;
25922;SDS011;13725;51.170;4.442;2024-01-30T11:18:30;4.25;;;0.80;;
25922;SDS011;13725;51.170;4.442;2024-01-30T11:20:57;2.70;;;0.90;;
25922;SDS011;13725;51.170;4.442;2024-01-30T11:23:26;0.80;;;0.80;;
25922;SDS011;13725;51.170;4.442;2024-01-30T11:25:52;2.80;;;1.00;;
25922;SDS011;13725;51.170;4.442;2024-01-30T11:28:18;2.85;;;0.90;;
25922;SDS011;13725;51.170;4.442;2024-01-30T11:30:45;4.18;;;1.00;;
25922;SDS011;13725;51.170;4.442;2024-01-30T11:33:13;2.80;;;0.70;;
25922;SDS011;13725;51.170;4.442;2024-01-30T11:35:40;1.27;;;0.90;;
25922;SDS011;13725;51.170;4.442;2024-01-30T11:38:07;4.85;;;0.60;;
25922;SDS011;13725;51.170;4.442;2024-01-30T11:40:36;2.60;;;0.57;;
25922;SDS011;13725;51.170;4.442;2024-01-30T11:43:03;1.45;;;0.63;;
25922;SDS011;13725;51.170;4.442;2024-01-30T11:45:29;2.15;;;1.00;;
25922;SDS011;13725;51.170;4.442;2024-01-30T11:47:56;1.98;;;0.40;;
25922;SDS011;13725;51.170;4.442;2024-01-30T11:50:22;2.95;;;0.70;;
25922;SDS011;13725;51.170;4.442;2024-01-30T11:52:49;2.95;;;0.80;;
25922;SDS011;13725;51.170;4.442;2024-01-30T11:55:15;5.47;;;0.85;;
25922;SDS011;13725;51.170;4.442;2024-01-30T11:57:41;1.77;;;0.50;;
25922;SDS011;13725;51.170;4.442;2024-01-30T12:00:13;5.18;;;0.60;;
25922;SDS011;13725;51.170;4.442;2024-01-30T12:02:40;2.88;;;0.55;;
25922;SDS011;13725;51.170;4.442;2024-01-30T12:05:06;2.90;;;0.75;;
25922;SDS011;13725;51.170;4.442;2024-01-30T12:07:33;3.08;;;0.70;;
25922;SDS011;13725;51.170;4.442;2024-01-30T12:09:59;5.95;;;0.88;;
25922;SDS011;13725;51.170;4.442;2024-01-30T12:12:25;3.25;;;0.88;;
25922;SDS011;13725;51.170;4.442;2024-01-30T12:14:52;4.13;;;0.70;;
25922;SDS011;13725;51.170;4.442;2024-01-30T12:17:26;3.20;;;0.93;;
25922;SDS011;13725;51.170;4.442;2024-01-30T12:20:06;3.45;;;1.00;;
25922;SDS011;13725;51.170;4.442;2024-01-30T12:25:07;5.22;;;0.80;;
25922;SDS011;13725;51.170;4.442;2024-01-30T12:27:34;4.20;;;0.75;;
25922;SDS011;13725;51.170;4.442;2024-01-30T12:30:00;4.00;;;0.90;;
25922;SDS011;13725;51.170;4.442;2024-01-30T12:32:26;3.03;;;1.00;;
25922;SDS011;13725;51.170;4.442;2024-01-30T12:34:56;2.67;;;0.63;;
25922;SDS011;13725;51.170;4.442;2024-01-30T12:37:22;3.28;;;1.00;;
25922;SDS011;13725;51.170;4.442;2024-01-30T12:39:50;5.70;;;1.40;;
25922;SDS011;13725;51.170;4.442;2024-01-30T12:42:19;3.90;;;1.00;;
25922;SDS011;13725;51.170;4.442;2024-01-30T12:44:46;2.47;;;1.20;;
25922;SDS011;13725;51.170;4.442;2024-01-30T12:47:13;2.95;;;0.68;;
25922;SDS011;13725;51.170;4.442;2024-01-30T12:49:41;1.30;;;0.63;;
25922;SDS011;13725;51.170;4.442;2024-01-30T12:52:10;5.10;;;1.00;;
25922;SDS011;13725;51.170;4.442;2024-01-30T12:54:37;4.05;;;1.77;;
25922;SDS011;13725;51.170;4.442;2024-01-30T12:57:03;1.85;;;0.90;;
25922;SDS011;13725;51.170;4.442;2024-01-30T12:59:30;4.30;;;1.27;;
25922;SDS011;13725;51.170;4.442;2024-01-30T13:01:55;4.90;;;1.23;;
25922;SDS011;13725;51.170;4.442;2024-01-30T13:04:22;2.20;;;0.88;;
25922;SDS011;13725;51.170;4.442;2024-01-30T13:06:48;4.43;;;0.93;;
25922;SDS011;13725;51.170;4.442;2024-01-30T13:09:13;5.28;;;0.77;;
25922;SDS011;13725;51.170;4.442;2024-01-30T13:11:41;3.83;;;0.98;;
25922;SDS011;13725;51.170;4.442;2024-01-30T13:14:06;5.97;;;1.17;;
25922;SDS011;13725;51.170;4.442;2024-01-30T13:16:32;2.80;;;1.02;;
25922;SDS011;13725;51.170;4.442;2024-01-30T13:18:58;5.90;;;0.93;;
25922;SDS011;13725;51.170;4.442;2024-01-30T13:21:26;2.90;;;1.02;;
25922;SDS011;13725;51.170;4.442;2024-01-30T13:23:51;3.10;;;1.30;;
25922;SDS011;13725;51.170;4.442;2024-01-30T13:26:19;3.67;;;1.05;;
25922;SDS011;13725;51.170;4.442;2024-01-30T13:28:48;8.15;;;1.33;;
25922;SDS011;13725;51.170;4.442;2024-01-30T13:31:14;6.03;;;1.15;;
25922;SDS011;13725;51.170;4.442;2024-01-30T13:33:40;5.13;;;1.10;;
25922;SDS011;13725;51.170;4.442;2024-01-30T13:36:07;4.68;;;1.48;;
25922;SDS011;13725;51.170;4.442;2024-01-30T13:38:34;8.73;;;1.30;;
25922;SDS011;13725;51.170;4.442;2024-01-30T13:41:00;7.55;;;1.08;;
25922;SDS011;13725;51.170;4.442;2024-01-30T13:43:26;7.80;;;1.33;;
25922;SDS011;13725;51.170;4.442;2024-01-30T13:45:52;5.13;;;1.25;;
25922;SDS011;13725;51.170;4.442;2024-01-30T13:48:18;5.07;;;1.48;;
25922;SDS011;13725;51.170;4.442;2024-01-30T13:50:44;3.97;;;1.08;;
25922;SDS011;13725;51.170;4.442;2024-01-30T13:53:11;5.45;;;1.10;;
25922;SDS011;13725;51.170;4.442;2024-01-30T13:55:37;9.98;;;1.05;;
25922;SDS011;13725;51.170;4.442;2024-01-30T13:58:04;8.63;;;1.10;;
25922;SDS011;13725;51.170;4.442;2024-01-30T14:00:30;4.88;;;1.10;;
25922;SDS011;13725;51.170;4.442;2024-01-30T14:02:56;5.25;;;1.20;;
25922;SDS011;13725;51.170;4.442;2024-01-30T14:05:25;5.28;;;0.98;;
25922;SDS011;13725;51.170;4.442;2024-01-30T14:07:53;8.68;;;1.20;;
25922;SDS011;13725;51.170;4.442;2024-01-30T14:10:19;4.38;;;1.10;;
25922;SDS011;13725;51.170;4.442;2024-01-30T14:12:45;5.10;;;0.95;;
25922;SDS011;13725;51.170;4.442;2024-01-30T14:15:13;3.65;;;0.80;;
25922;SDS011;13725;51.170;4.442;2024-01-30T14:17:40;5.20;;;0.95;;
25922;SDS011;13725;51.170;4.442;2024-01-30T14:20:06;8.23;;;1.15;;
25922;SDS011;13725;51.170;4.442;2024-01-30T14:22:36;9.05;;;1.60;;
25922;SDS011;13725;51.170;4.442;2024-01-30T14:25:02;10.00;;;1.35;;
25922;SDS011;13725;51.170;4.442;2024-01-30T14:27:31;13.02;;;1.15;;
25922;SDS011;13725;51.170;4.442;2024-01-30T14:29:57;10.50;;;1.13;;
25922;SDS011;13725;51.170;4.442;2024-01-30T14:32:24;8.02;;;1.20;;
25922;SDS011;13725;51.170;4.442;2024-01-30T14:34:50;4.80;;;1.45;;
25922;SDS011;13725;51.170;4.442;2024-01-30T14:37:17;3.60;;;0.90;;